Latest Coastal Weather Observations for Holmes Reef

IDQ60701

Issued at 7:42 am EST Wednesday 3 June 2020 (issued every 10 minutes, with the page automatically refreshed every 10 minutes)

About coastal observations | Map of coastal stations | Coastal observations for QLD | Marine services | Other Formats
Station Details ID: 200732 Name: HOLMES REEF Lat: -16.47 Lon: 147.87 Height: 1.9 m
Data from the previous 72 hours. | See also: Recent months at Holmes Reef
Date/Time
EST
Wind Sea
Height
m
Swell Vis
km
Cloud Weather Temp
°C
Press
hPa
Rain since
9am
mm
Dir  Spd
kts
Gust
kts
Height
m
Period
s
Dir
03/07:30am SE 25 29 - - - - - - - 25.5 1017.2 -
03/07:00am ESE 24 28 - - - - - - - 25.2 1017.0 -
03/06:30am SE 24 28 - - - - - - - 25.3 1016.6 -
03/06:00am ESE 24 28 - - - - - - - 25.2 1016.1 -
03/05:30am SE 25 29 - - - - - - - 25.2 1015.7 -
03/05:00am SE 25 30 - - - - - - - 25.2 1015.5 -
03/04:30am SE 24 28 - - - - - - - 24.9 1015.4 -
03/04:00am SE 26 30 - - - - - - - 25.1 1015.3 -
03/03:30am SE 23 27 - - - - - - - 25.0 1015.3 -
03/03:00am SE 24 28 - - - - - - - 25.0 1015.4 -
03/02:30am ESE 23 27 - - - - - - - 24.9 1015.6 -
03/02:00am ESE 23 28 - - - - - - - 24.8 1015.8 -
03/01:30am ESE 23 26 - - - - - - - 24.9 1016.3 -
03/01:00am ESE 22 25 - - - - - - - 24.9 1016.7 -
03/12:30am ESE 22 24 - - - - - - - 25.0 1017.1 -
03/12:00am SE 22 26 - - - - - - - 25.0 1017.1 -
 
Date/Time
EST
Wind Sea
Height
m
Swell Vis
km
Cloud Weather Temp
°C
Press
hPa
Rain since
9am
mm
Dir  Spd
kts
Gust
kts
Height
m
Period
s
Dir
02/11:30pm SE 22 26 - - - - - - - 24.9 1017.2 -
02/11:00pm SE 23 27 - - - - - - - 24.8 1017.5 -
02/10:30pm SE 23 27 - - - - - - - 24.8 1017.6 -
02/10:00pm SE 23 27 - - - - - - - 25.0 1017.7 -
02/09:30pm SE 23 28 - - - - - - - 25.0 1017.6 -
02/09:00pm SE 23 29 - - - - - - - 25.1 1017.4 -
02/08:30pm SE 23 26 - - - - - - - 25.0 1017.3 -
02/08:00pm SE 23 28 - - - - - - - 25.0 1017.1 -
02/07:30pm SE 23 26 - - - - - - - 25.1 1016.7 -
02/07:00pm SE 23 27 - - - - - - - 25.1 1016.4 -
02/06:30pm SE 22 27 - - - - - - - 25.1 1016.4 -
02/06:00pm SSE 21 25 - - - - - - - 25.2 1016.1 -
02/05:30pm SSE 20 23 - - - - - - - 25.1 1015.8 -
02/05:00pm SSE 21 24 - - - - - - - 25.2 1015.5 -
02/04:30pm SSE 20 23 - - - - - - - 25.2 1015.4 -
02/04:00pm SSE 18 21 - - - - - - - 25.4 1015.2 -
02/03:30pm SSE 19 21 - - - - - - - 25.5 1015.3 -
02/03:00pm SSE 18 21 - - - - - - - 25.6 1015.3 -
02/02:30pm SSE 18 21 - - - - - - - 25.4 1015.3 -
02/02:00pm SSE 17 20 - - - - - - - 25.3 1015.5 -
02/01:30pm SSE 17 19 - - - - - - - 25.4 1015.7 -
02/01:00pm SSE 17 20 - - - - - - - 25.5 1016.1 -
02/12:30pm SE 16 18 - - - - - - - 25.1 1016.2 -
02/12:00pm SE 17 19 - - - - - - - 25.1 1016.6 -
02/11:30am SE 18 21 - - - - - - - 25.1 1016.6 -
02/11:00am SE 18 20 - - - - - - - 25.2 1016.9 -
02/10:30am SE 18 20 - - - - - - - 25.0 1017.0 -
02/10:00am SE 17 19 - - - - - - - 25.0 1017.0 -
02/09:30am SE 17 19 - - - - - - - 25.1 1017.2 -
02/09:00am SE 17 21 - - - - - - - 25.0 1017.2 -
02/08:30am SE 16 19 - - - - - - - 24.9 1017.0 -
02/08:00am SE 16 18 - - - - - - - 25.0 1016.8 -
02/07:30am SE 15 19 - - - - - - - 24.9 1016.7 -
02/07:00am SE 16 17 - - - - - - - 24.7 1016.4 -
02/06:30am SE 14 17 - - - - - - - 24.6 1016.2 -
02/06:00am SE 14 17 - - - - - - - 24.6 1015.9 -
02/05:30am SE 15 18 - - - - - - - 24.6 1015.6 -
02/05:00am SE 13 15 - - - - - - - 24.7 1015.5 -
02/04:30am SE 13 16 - - - - - - - 24.6 1015.3 -
02/04:00am SE 14 17 - - - - - - - 24.7 1014.9 -
02/03:30am ESE 14 17 - - - - - - - 24.7 1015.0 -
02/03:00am ESE 14 17 - - - - - - - 24.8 1015.0 -
02/02:30am ESE 15 18 - - - - - - - 24.8 1015.2 -
02/02:00am ESE 14 16 - - - - - - - 24.8 1015.3 -
02/01:30am ESE 14 17 - - - - - - - 24.9 1015.7 -
02/01:00am ESE 13 16 - - - - - - - 24.9 1015.9 -
02/12:30am ESE 14 16 - - - - - - - 24.9 1016.2 -
02/12:00am ESE 14 16 - - - - - - - 25.1 1016.6 -
 
Date/Time
EST
Wind Sea
Height
m
Swell Vis
km
Cloud Weather Temp
°C
Press
hPa
Rain since
9am
mm
Dir  Spd
kts
Gust
kts
Height
m
Period
s
Dir
01/11:30pm ESE 15 18 - - - - - - - 25.1 1016.9 -
01/11:00pm ESE 15 18 - - - - - - - 25.2 1017.0 -
01/10:30pm ESE 15 17 - - - - - - - 25.2 1017.0 -
01/10:00pm ESE 16 19 - - - - - - - 25.2 1017.0 -
01/09:30pm ESE 16 19 - - - - - - - 25.2 1017.0 -
01/09:00pm SE 16 19 - - - - - - - 25.2 1017.0 -
01/08:30pm SE 15 17 - - - - - - - 25.3 1016.9 -
01/08:00pm SE 16 18 - - - - - - - 25.4 1016.6 -
01/07:30pm SE 15 19 - - - - - - - 25.3 1016.2 -
01/07:00pm SE 15 17 - - - - - - - 25.4 1015.9 -
01/06:30pm SE 15 18 - - - - - - - 25.4 1015.6 -
01/06:00pm SE 15 17 - - - - - - - 25.4 1015.5 -
01/05:30pm SE 14 17 - - - - - - - 25.6 1015.2 -
01/05:00pm SE 13 16 - - - - - - - 25.8 1015.0 -
01/04:30pm SE 13 15 - - - - - - - 25.7 1014.9 -
01/04:00pm SE 13 16 - - - - - - - 25.8 1014.6 -
01/03:30pm SE 14 16 - - - - - - - 25.6 1014.5 -
01/03:00pm SE 13 15 - - - - - - - 25.7 1014.5 -
01/02:30pm SE 13 14 - - - - - - - 25.7 1014.6 -
01/02:00pm SE 13 16 - - - - - - - 25.8 1014.6 -
01/01:30pm SE 14 16 - - - - - - - 25.8 1014.9 -
01/01:00pm SE 14 15 - - - - - - - 25.6 1015.1 -
01/12:30pm ESE 14 16 - - - - - - - 25.7 1015.5 -
01/12:00pm ESE 14 16 - - - - - - - 25.5 1016.0 -
01/11:30am ESE 15 17 - - - - - - - 25.5 1016.2 -
01/11:00am ESE 15 17 - - - - - - - 25.6 1016.5 -
01/10:30am ESE 15 19 - - - - - - - 25.3 1016.8 -
01/10:00am ESE 15 17 - - - - - - - 25.3 1017.1 -
01/09:30am ESE 15 17 - - - - - - - 25.4 1017.0 -
01/09:00am ESE 15 17 - - - - - - - 25.3 1016.9 -
01/08:30am ESE 15 17 - - - - - - - 25.3 1016.7 -
01/08:00am ESE 16 17 - - - - - - - 25.3 1016.3 -
01/07:30am E 15 17 - - - - - - - 25.3 1015.9 -
01/07:00am ESE 16 18 - - - - - - - 25.2 1015.7 -
01/06:30am ESE 16 19 - - - - - - - 25.1 1015.5 -
01/06:00am E 17 20 - - - - - - - 25.2 1015.3 -
01/05:30am ESE 18 20 - - - - - - - 25.2 1015.0 -
01/05:00am ESE 19 21 - - - - - - - 25.0 1014.9 -
01/04:30am ESE 19 21 - - - - - - - 25.0 1015.0 -
01/04:00am ESE 19 22 - - - - - - - 25.0 1014.9 -
01/03:30am E 17 20 - - - - - - - 25.1 1015.2 -
01/03:00am E 17 20 - - - - - - - 25.1 1015.4 -
01/01:30am ESE 18 21 - - - - - - - 25.4 1016.0 -
01/01:00am ESE 18 21 - - - - - - - 25.1 1016.2 -

Other formats

Comma delimited format used in spreadsheet applications
http://www.bom.gov.au/fwo/IDQ60701/IDQ60701.94289.axf

JavaScript Object Notation format (JSON) in row-major order
http://www.bom.gov.au/fwo/IDQ60701/IDQ60701.94289.json

Data quality

Most of these data are generated automatically and are frequently updated. Quality checks on data are not normally performed. It is possible for incorrect values to appear. Refer to information at About Latest Weather Observations and please check the disclaimer before using these data.